sensor_id;sensor_type;location;lat;lon;timestamp;pressure;altitude;pressure_sealevel;temperature;humidity
3590;BME280;1809;48.470;9.226;2022-08-20T00:00:07;96884.09;;;19.75;100.00
3590;BME280;1809;48.470;9.226;2022-08-20T00:02:50;96890.66;;;19.74;100.00
3590;BME280;1809;48.470;9.226;2022-08-20T00:05:22;96881.84;;;19.77;100.00
3590;BME280;1809;48.470;9.226;2022-08-20T00:07:48;96879.66;;;19.82;100.00
3590;BME280;1809;48.470;9.226;2022-08-20T00:10:14;96886.59;;;19.80;100.00
3590;BME280;1809;48.470;9.226;2022-08-20T00:12:47;96885.88;;;19.83;100.00
3590;BME280;1809;48.470;9.226;2022-08-20T00:15:15;96877.38;;;19.84;100.00
3590;BME280;1809;48.470;9.226;2022-08-20T00:17:41;96885.19;;;19.86;100.00
3590;BME280;1809;48.470;9.226;2022-08-20T00:20:10;96877.88;;;19.74;100.00
3590;BME280;1809;48.470;9.226;2022-08-20T00:22:36;96882.53;;;19.74;100.00
3590;BME280;1809;48.470;9.226;2022-08-20T00:25:04;96882.78;;;19.69;100.00
3590;BME280;1809;48.470;9.226;2022-08-20T00:27:30;96883.91;;;19.68;100.00
3590;BME280;1809;48.470;9.226;2022-08-20T00:29:55;96883.06;;;19.64;100.00
3590;BME280;1809;48.470;9.226;2022-08-20T00:32:20;96884.19;;;19.63;100.00
3590;BME280;1809;48.470;9.226;2022-08-20T00:34:46;96891.00;;;19.57;100.00
3590;BME280;1809;48.470;9.226;2022-08-20T00:37:11;96891.69;;;19.54;100.00
3590;BME280;1809;48.470;9.226;2022-08-20T00:39:37;96881.44;;;19.47;100.00
3590;BME280;1809;48.470;9.226;2022-08-20T00:42:03;96882.50;;;19.43;100.00
3590;BME280;1809;48.470;9.226;2022-08-20T00:44:28;96877.75;;;19.40;100.00
3590;BME280;1809;48.470;9.226;2022-08-20T00:46:54;96877.25;;;19.38;100.00
3590;BME280;1809;48.470;9.226;2022-08-20T00:49:25;96882.06;;;19.28;100.00
3590;BME280;1809;48.470;9.226;2022-08-20T00:52:00;96887.38;;;19.25;100.00
3590;BME280;1809;48.470;9.226;2022-08-20T00:54:32;96889.81;;;19.14;100.00
3590;BME280;1809;48.470;9.226;2022-08-20T00:57:06;96896.78;;;19.15;100.00
3590;BME280;1809;48.470;9.226;2022-08-20T00:59:34;96885.19;;;19.03;100.00
3590;BME280;1809;48.470;9.226;2022-08-20T01:02:03;96880.34;;;18.96;100.00
3590;BME280;1809;48.470;9.226;2022-08-20T01:04:30;96889.94;;;19.06;100.00
3590;BME280;1809;48.470;9.226;2022-08-20T01:06:58;96885.09;;;18.99;100.00
3590;BME280;1809;48.470;9.226;2022-08-20T01:09:24;96893.09;;;19.08;100.00
3590;BME280;1809;48.470;9.226;2022-08-20T01:11:50;96896.13;;;19.06;100.00
3590;BME280;1809;48.470;9.226;2022-08-20T01:14:15;96892.34;;;18.95;100.00
3590;BME280;1809;48.470;9.226;2022-08-20T01:17:02;96894.13;;;19.03;100.00
3590;BME280;1809;48.470;9.226;2022-08-20T01:19:32;96890.75;;;18.94;100.00
3590;BME280;1809;48.470;9.226;2022-08-20T01:21:59;96893.75;;;18.77;100.00
3590;BME280;1809;48.470;9.226;2022-08-20T01:24:34;96897.72;;;18.67;100.00
3590;BME280;1809;48.470;9.226;2022-08-20T01:27:03;96900.19;;;18.60;100.00
3590;BME280;1809;48.470;9.226;2022-08-20T01:29:35;96900.75;;;18.66;100.00
3590;BME280;1809;48.470;9.226;2022-08-20T01:32:02;96899.41;;;18.60;100.00
3590;BME280;1809;48.470;9.226;2022-08-20T01:34:28;96896.59;;;18.56;100.00
3590;BME280;1809;48.470;9.226;2022-08-20T01:36:56;96900.78;;;18.54;100.00
3590;BME280;1809;48.470;9.226;2022-08-20T01:39:33;96909.44;;;18.59;100.00
3590;BME280;1809;48.470;9.226;2022-08-20T01:44:32;96915.53;;;18.56;100.00
3590;BME280;1809;48.470;9.226;2022-08-20T01:47:10;96909.34;;;18.56;100.00
3590;BME280;1809;48.470;9.226;2022-08-20T01:49:40;96911.16;;;18.52;100.00
3590;BME280;1809;48.470;9.226;2022-08-20T01:52:11;96909.13;;;18.61;100.00
3590;BME280;1809;48.470;9.226;2022-08-20T01:54:39;96912.50;;;18.58;100.00
3590;BME280;1809;48.470;9.226;2022-08-20T01:59:34;96906.16;;;18.78;100.00
3590;BME280;1809;48.470;9.226;2022-08-20T02:02:00;96910.19;;;18.84;100.00
3590;BME280;1809;48.470;9.226;2022-08-20T02:04:26;96913.84;;;18.76;100.00
3590;BME280;1809;48.470;9.226;2022-08-20T02:06:55;96908.84;;;18.78;100.00
3590;BME280;1809;48.470;9.226;2022-08-20T02:09:20;96910.22;;;18.72;100.00
3590;BME280;1809;48.470;9.226;2022-08-20T02:11:46;96917.56;;;18.71;100.00
3590;BME280;1809;48.470;9.226;2022-08-20T02:14:13;96908.09;;;18.65;100.00
3590;BME280;1809;48.470;9.226;2022-08-20T02:16:42;96921.31;;;18.67;100.00
3590;BME280;1809;48.470;9.226;2022-08-20T02:19:09;96921.50;;;18.62;100.00
3590;BME280;1809;48.470;9.226;2022-08-20T02:21:40;96927.75;;;18.50;100.00
3590;BME280;1809;48.470;9.226;2022-08-20T02:24:08;96922.84;;;18.44;100.00
3590;BME280;1809;48.470;9.226;2022-08-20T02:26:33;96925.34;;;18.49;100.00
3590;BME280;1809;48.470;9.226;2022-08-20T02:29:04;96923.34;;;18.58;100.00
3590;BME280;1809;48.470;9.226;2022-08-20T02:31:31;96917.25;;;18.61;100.00
3590;BME280;1809;48.470;9.226;2022-08-20T02:33:56;96924.22;;;18.62;100.00
3590;BME280;1809;48.470;9.226;2022-08-20T02:36:22;96923.47;;;18.61;100.00
3590;BME280;1809;48.470;9.226;2022-08-20T02:38:47;96924.03;;;18.55;100.00
3590;BME280;1809;48.470;9.226;2022-08-20T02:41:13;96923.91;;;18.63;100.00
3590;BME280;1809;48.470;9.226;2022-08-20T02:43:39;96922.66;;;18.61;100.00
3590;BME280;1809;48.470;9.226;2022-08-20T02:46:06;96924.47;;;18.57;100.00
3590;BME280;1809;48.470;9.226;2022-08-20T02:48:32;96926.50;;;18.60;100.00
3590;BME280;1809;48.470;9.226;2022-08-20T02:51:00;96921.53;;;18.74;100.00
3590;BME280;1809;48.470;9.226;2022-08-20T02:53:28;96919.25;;;18.76;100.00
3590;BME280;1809;48.470;9.226;2022-08-20T02:55:55;96923.09;;;18.75;100.00
3590;BME280;1809;48.470;9.226;2022-08-20T02:58:21;96921.53;;;18.74;100.00
3590;BME280;1809;48.470;9.226;2022-08-20T03:00:47;96921.84;;;18.85;100.00
3590;BME280;1809;48.470;9.226;2022-08-20T03:03:14;96910.56;;;18.83;100.00
3590;BME280;1809;48.470;9.226;2022-08-20T03:05:43;96913.38;;;18.86;100.00
3590;BME280;1809;48.470;9.226;2022-08-20T03:08:11;96907.28;;;18.89;100.00
3590;BME280;1809;48.470;9.226;2022-08-20T03:10:38;96900.72;;;18.78;100.00
3590;BME280;1809;48.470;9.226;2022-08-20T03:13:05;96899.84;;;18.74;100.00
3590;BME280;1809;48.470;9.226;2022-08-20T03:15:32;96904.38;;;18.70;100.00
3590;BME280;1809;48.470;9.226;2022-08-20T03:17:58;96899.75;;;18.70;100.00
3590;BME280;1809;48.470;9.226;2022-08-20T03:20:26;96893.53;;;18.70;100.00
3590;BME280;1809;48.470;9.226;2022-08-20T03:22:51;96897.16;;;18.74;100.00
3590;BME280;1809;48.470;9.226;2022-08-20T03:25:17;96893.53;;;18.70;100.00
3590;BME280;1809;48.470;9.226;2022-08-20T03:27:43;96899.97;;;18.53;100.00
3590;BME280;1809;48.470;9.226;2022-08-20T03:30:10;96897.16;;;18.50;100.00
3590;BME280;1809;48.470;9.226;2022-08-20T03:32:37;96903.34;;;18.38;100.00
3590;BME280;1809;48.470;9.226;2022-08-20T03:35:05;96902.53;;;18.38;100.00
3590;BME280;1809;48.470;9.226;2022-08-20T03:37:33;96913.72;;;18.36;100.00
3590;BME280;1809;48.470;9.226;2022-08-20T03:39:59;96917.13;;;18.45;100.00
3590;BME280;1809;48.470;9.226;2022-08-20T03:42:25;96911.50;;;18.50;100.00
3590;BME280;1809;48.470;9.226;2022-08-20T03:44:51;96917.25;;;18.61;100.00
3590;BME280;1809;48.470;9.226;2022-08-20T03:47:17;96909.56;;;18.63;100.00
3590;BME280;1809;48.470;9.226;2022-08-20T03:49:43;96910.00;;;18.77;100.00
3590;BME280;1809;48.470;9.226;2022-08-20T03:52:08;96915.31;;;18.73;100.00
3590;BME280;1809;48.470;9.226;2022-08-20T03:54:33;96922.09;;;18.79;100.00
3590;BME280;1809;48.470;9.226;2022-08-20T03:57:00;96922.41;;;18.78;100.00
3590;BME280;1809;48.470;9.226;2022-08-20T03:59:26;96925.47;;;18.76;100.00
3590;BME280;1809;48.470;9.226;2022-08-20T04:01:52;96915.88;;;18.67;100.00
3590;BME280;1809;48.470;9.226;2022-08-20T04:04:18;96916.19;;;18.77;100.00
3590;BME280;1809;48.470;9.226;2022-08-20T04:06:44;96915.88;;;18.67;100.00
3590;BME280;1809;48.470;9.226;2022-08-20T04:09:12;96910.47;;;18.67;100.00
3590;BME280;1809;48.470;9.226;2022-08-20T04:11:37;96919.72;;;18.66;100.00
3590;BME280;1809;48.470;9.226;2022-08-20T04:14:03;96915.09;;;18.66;100.00
3590;BME280;1809;48.470;9.226;2022-08-20T04:16:28;96916.31;;;18.81;100.00
3590;BME280;1809;48.470;9.226;2022-08-20T04:18:54;96921.84;;;18.85;100.00
3590;BME280;1809;48.470;9.226;2022-08-20T04:21:19;96918.91;;;18.77;100.00
3590;BME280;1809;48.470;9.226;2022-08-20T04:23:44;96918.66;;;18.95;100.00
3590;BME280;1809;48.470;9.226;2022-08-20T04:26:10;96920.31;;;18.99;100.00
3590;BME280;1809;48.470;9.226;2022-08-20T04:28:35;96922.16;;;18.95;100.00
3590;BME280;1809;48.470;9.226;2022-08-20T04:31:00;96922.28;;;18.99;100.00
3590;BME280;1809;48.470;9.226;2022-08-20T04:33:28;96918.75;;;18.98;100.00
3590;BME280;1809;48.470;9.226;2022-08-20T04:35:56;96921.38;;;18.95;100.00
3590;BME280;1809;48.470;9.226;2022-08-20T04:38:25;96922.75;;;18.89;100.00
3590;BME280;1809;48.470;9.226;2022-08-20T04:40:51;96921.03;;;18.84;100.00
3590;BME280;1809;48.470;9.226;2022-08-20T04:43:24;96930.53;;;18.78;100.00
3590;BME280;1809;48.470;9.226;2022-08-20T04:45:51;96927.72;;;18.74;100.00
3590;BME280;1809;48.470;9.226;2022-08-20T04:48:18;96924.91;;;18.83;100.00
3590;BME280;1809;48.470;9.226;2022-08-20T04:50:44;96934.59;;;18.84;100.00
3590;BME280;1809;48.470;9.226;2022-08-20T04:53:13;96940.59;;;18.77;100.00
3590;BME280;1809;48.470;9.226;2022-08-20T04:55:40;96939.13;;;18.80;100.00
3590;BME280;1809;48.470;9.226;2022-08-20T04:58:13;96935.94;;;18.90;100.00
3590;BME280;1809;48.470;9.226;2022-08-20T05:00:40;96935.94;;;18.90;100.00
3590;BME280;1809;48.470;9.226;2022-08-20T05:03:08;96935.94;;;18.90;100.00
3590;BME280;1809;48.470;9.226;2022-08-20T05:05:34;96934.56;;;18.96;100.00
3590;BME280;1809;48.470;9.226;2022-08-20T05:08:00;96939.31;;;18.99;100.00
3590;BME280;1809;48.470;9.226;2022-08-20T05:10:27;96950.63;;;19.01;100.00
3590;BME280;1809;48.470;9.226;2022-08-20T05:12:52;96949.91;;;19.16;100.00
3590;BME280;1809;48.470;9.226;2022-08-20T05:15:18;96949.69;;;19.09;100.00
3590;BME280;1809;48.470;9.226;2022-08-20T05:17:44;96955.06;;;19.21;100.00
3590;BME280;1809;48.470;9.226;2022-08-20T05:20:14;96960.16;;;19.23;100.00
3590;BME280;1809;48.470;9.226;2022-08-20T05:22:40;96964.09;;;19.25;100.00
3590;BME280;1809;48.470;9.226;2022-08-20T05:25:06;96951.88;;;19.31;100.00
3590;BME280;1809;48.470;9.226;2022-08-20T05:27:32;96954.34;;;19.49;100.00
3590;BME280;1809;48.470;9.226;2022-08-20T05:30:03;96957.25;;;19.56;100.00
3590;BME280;1809;48.470;9.226;2022-08-20T05:32:32;96970.06;;;19.71;100.00
3590;BME280;1809;48.470;9.226;2022-08-20T05:34:57;96972.13;;;19.62;100.00
3590;BME280;1809;48.470;9.226;2022-08-20T05:37:23;96974.22;;;19.53;100.00
3590;BME280;1809;48.470;9.226;2022-08-20T05:39:49;96979.34;;;19.42;100.00
3590;BME280;1809;48.470;9.226;2022-08-20T05:42:14;96973.94;;;19.30;100.00
3590;BME280;1809;48.470;9.226;2022-08-20T05:44:39;96972.94;;;19.22;100.00
3590;BME280;1809;48.470;9.226;2022-08-20T05:47:05;96974.72;;;19.18;100.00
3590;BME280;1809;48.470;9.226;2022-08-20T05:49:30;96978.09;;;19.27;100.00
3590;BME280;1809;48.470;9.226;2022-08-20T05:51:56;96972.19;;;19.38;100.00
3590;BME280;1809;48.470;9.226;2022-08-20T05:54:22;96977.44;;;19.43;100.00
3590;BME280;1809;48.470;9.226;2022-08-20T05:56:48;96981.81;;;19.47;100.00
3590;BME280;1809;48.470;9.226;2022-08-20T05:59:14;96978.25;;;19.59;100.00
3590;BME280;1809;48.470;9.226;2022-08-20T06:01:40;96976.88;;;19.65;100.00
3590;BME280;1809;48.470;9.226;2022-08-20T06:04:07;96978.31;;;19.74;100.00
3590;BME280;1809;48.470;9.226;2022-08-20T06:07:01;96974.72;;;19.70;100.00
3590;BME280;1809;48.470;9.226;2022-08-20T06:09:28;96978.81;;;19.92;100.00
3590;BME280;1809;48.470;9.226;2022-08-20T06:11:53;96978.34;;;19.90;100.00
3590;BME280;1809;48.470;9.226;2022-08-20T06:14:18;96976.03;;;20.04;100.00
3590;BME280;1809;48.470;9.226;2022-08-20T06:16:44;96976.66;;;20.13;100.00
3590;BME280;1809;48.470;9.226;2022-08-20T06:19:10;96966.25;;;20.31;100.00
3590;BME280;1809;48.470;9.226;2022-08-20T06:21:36;96974.06;;;20.64;100.00
3590;BME280;1809;48.470;9.226;2022-08-20T06:24:02;96969.41;;;20.99;100.00
3590;BME280;1809;48.470;9.226;2022-08-20T06:26:28;96979.41;;;21.26;100.00
3590;BME280;1809;48.470;9.226;2022-08-20T06:28:53;96979.25;;;21.58;100.00
3590;BME280;1809;48.470;9.226;2022-08-20T06:31:21;96975.84;;;21.41;100.00
3590;BME280;1809;48.470;9.226;2022-08-20T06:33:46;96977.84;;;21.44;100.00
3590;BME280;1809;48.470;9.226;2022-08-20T06:36:12;96976.09;;;21.36;100.00
3590;BME280;1809;48.470;9.226;2022-08-20T06:38:37;96983.25;;;21.25;100.00
3590;BME280;1809;48.470;9.226;2022-08-20T06:41:02;96982.75;;;21.20;100.00
3590;BME280;1809;48.470;9.226;2022-08-20T06:43:28;96983.00;;;21.15;100.00
3590;BME280;1809;48.470;9.226;2022-08-20T06:45:53;96985.22;;;21.09;100.00
3590;BME280;1809;48.470;9.226;2022-08-20T06:48:22;96982.06;;;21.07;100.00
3590;BME280;1809;48.470;9.226;2022-08-20T06:50:48;96985.22;;;21.09;100.00
3590;BME280;1809;48.470;9.226;2022-08-20T06:53:16;96991.25;;;21.03;100.00
3590;BME280;1809;48.470;9.226;2022-08-20T06:55:45;96986.19;;;21.17;100.00
3590;BME280;1809;48.470;9.226;2022-08-20T06:58:12;96986.53;;;21.15;100.00
3590;BME280;1809;48.470;9.226;2022-08-20T07:00:39;96992.72;;;21.31;100.00
3590;BME280;1809;48.470;9.226;2022-08-20T07:03:06;96982.69;;;21.35;100.00
3590;BME280;1809;48.470;9.226;2022-08-20T07:05:37;96985.72;;;21.50;100.00
3590;BME280;1809;48.470;9.226;2022-08-20T07:08:10;96987.72;;;21.53;100.00
3590;BME280;1809;48.470;9.226;2022-08-20T07:10:38;96988.84;;;21.71;100.00
3590;BME280;1809;48.470;9.226;2022-08-20T07:13:03;96989.00;;;21.78;100.00
3590;BME280;1809;48.470;9.226;2022-08-20T07:15:29;96997.59;;;21.80;100.00
3590;BME280;1809;48.470;9.226;2022-08-20T07:17:59;96993.72;;;21.81;100.00
3590;BME280;1809;48.470;9.226;2022-08-20T07:20:25;96993.38;;;22.02;100.00
3590;BME280;1809;48.470;9.226;2022-08-20T07:22:50;97005.19;;;22.09;100.00
3590;BME280;1809;48.470;9.226;2022-08-20T07:25:18;97002.75;;;21.85;100.00
3590;BME280;1809;48.470;9.226;2022-08-20T07:27:44;96996.75;;;21.95;100.00
3590;BME280;1809;48.470;9.226;2022-08-20T07:30:25;96997.72;;;21.87;100.00
3590;BME280;1809;48.470;9.226;2022-08-20T07:33:09;97009.53;;;21.91;100.00
3590;BME280;1809;48.470;9.226;2022-08-20T07:35:37;96993.81;;;21.84;100.00
3590;BME280;1809;48.470;9.226;2022-08-20T07:38:02;97002.63;;;21.78;100.00
3590;BME280;1809;48.470;9.226;2022-08-20T07:40:30;97011.72;;;21.85;100.00
3590;BME280;1809;48.470;9.226;2022-08-20T07:42:57;97001.84;;;21.96;100.00
3590;BME280;1809;48.470;9.226;2022-08-20T07:45:25;97004.47;;;22.12;100.00
3590;BME280;1809;48.470;9.226;2022-08-20T07:47:52;97011.75;;;22.27;100.00
3590;BME280;1809;48.470;9.226;2022-08-20T07:50:22;97003.66;;;22.54;100.00
3590;BME280;1809;48.470;9.226;2022-08-20T07:52:48;97012.50;;;22.70;100.00
3590;BME280;1809;48.470;9.226;2022-08-20T07:55:16;97013.94;;;22.64;100.00
3590;BME280;1809;48.470;9.226;2022-08-20T07:57:43;97011.59;;;22.62;100.00
3590;BME280;1809;48.470;9.226;2022-08-20T08:00:11;97018.03;;;22.73;100.00
3590;BME280;1809;48.470;9.226;2022-08-20T08:02:38;97022.31;;;22.97;100.00
3590;BME280;1809;48.470;9.226;2022-08-20T08:05:04;97015.59;;;23.17;100.00
3590;BME280;1809;48.470;9.226;2022-08-20T08:07:30;97015.00;;;23.31;100.00
3590;BME280;1809;48.470;9.226;2022-08-20T08:09:57;97013.78;;;23.54;100.00
3590;BME280;1809;48.470;9.226;2022-08-20T08:12:27;97014.66;;;23.92;100.00
3590;BME280;1809;48.470;9.226;2022-08-20T08:14:57;97015.19;;;24.41;100.00
3590;BME280;1809;48.470;9.226;2022-08-20T08:17:23;97022.00;;;25.02;100.00
3590;BME280;1809;48.470;9.226;2022-08-20T08:19:49;97008.97;;;25.43;100.00
3590;BME280;1809;48.470;9.226;2022-08-20T08:22:16;97014.25;;;25.80;100.00
3590;BME280;1809;48.470;9.226;2022-08-20T08:24:43;97012.69;;;25.72;100.00
3590;BME280;1809;48.470;9.226;2022-08-20T08:27:11;97021.69;;;25.14;100.00
3590;BME280;1809;48.470;9.226;2022-08-20T08:29:37;97018.19;;;24.70;100.00
3590;BME280;1809;48.470;9.226;2022-08-20T08:32:03;97018.91;;;24.23;100.00
3590;BME280;1809;48.470;9.226;2022-08-20T08:34:34;97012.69;;;24.26;100.00
3590;BME280;1809;48.470;9.226;2022-08-20T08:37:00;97012.53;;;24.48;100.00
3590;BME280;1809;48.470;9.226;2022-08-20T08:39:27;97011.81;;;24.55;100.00
3590;BME280;1809;48.470;9.226;2022-08-20T08:41:54;97012.78;;;24.33;100.00
3590;BME280;1809;48.470;9.226;2022-08-20T08:44:27;97009.63;;;23.94;100.00
3590;BME280;1809;48.470;9.226;2022-08-20T08:46:57;97010.75;;;23.60;100.00
3590;BME280;1809;48.470;9.226;2022-08-20T08:49:27;97011.91;;;23.59;100.00
3590;BME280;1809;48.470;9.226;2022-08-20T08:51:56;97015.66;;;23.47;100.00
3590;BME280;1809;48.470;9.226;2022-08-20T08:54:27;97018.00;;;23.48;100.00
3590;BME280;1809;48.470;9.226;2022-08-20T08:56:53;97019.00;;;23.67;100.00
3590;BME280;1809;48.470;9.226;2022-08-20T08:59:19;97028.97;;;23.82;100.00
3590;BME280;1809;48.470;9.226;2022-08-20T09:01:52;97018.31;;;24.03;100.00
3590;BME280;1809;48.470;9.226;2022-08-20T09:04:19;97020.06;;;24.18;100.00
3590;BME280;1809;48.470;9.226;2022-08-20T09:06:46;97010.94;;;24.10;100.00
3590;BME280;1809;48.470;9.226;2022-08-20T09:09:24;97012.09;;;24.83;100.00
3590;BME280;1809;48.470;9.226;2022-08-20T09:11:52;97024.75;;;25.02;100.00
3590;BME280;1809;48.470;9.226;2022-08-20T09:14:19;97019.34;;;25.16;100.00
3590;BME280;1809;48.470;9.226;2022-08-20T09:16:45;97009.44;;;25.52;100.00
3590;BME280;1809;48.470;9.226;2022-08-20T09:19:11;97015.38;;;25.03;100.00
3590;BME280;1809;48.470;9.226;2022-08-20T09:21:36;97013.63;;;25.35;100.00
3590;BME280;1809;48.470;9.226;2022-08-20T09:24:02;97014.66;;;25.75;100.00
3590;BME280;1809;48.470;9.226;2022-08-20T09:26:29;97013.28;;;25.40;100.00
3590;BME280;1809;48.470;9.226;2022-08-20T09:28:54;97006.22;;;25.39;100.00
3590;BME280;1809;48.470;9.226;2022-08-20T09:31:19;97005.63;;;25.71;100.00
3590;BME280;1809;48.470;9.226;2022-08-20T09:33:45;97004.16;;;25.98;100.00
3590;BME280;1809;48.470;9.226;2022-08-20T09:38:40;97002.72;;;26.39;100.00
3590;BME280;1809;48.470;9.226;2022-08-20T09:41:06;96995.44;;;25.71;100.00
3590;BME280;1809;48.470;9.226;2022-08-20T09:43:31;96993.47;;;25.03;100.00
3590;BME280;1809;48.470;9.226;2022-08-20T09:45:57;97003.66;;;25.06;100.00
3590;BME280;1809;48.470;9.226;2022-08-20T09:48:22;96988.56;;;24.79;100.00
3590;BME280;1809;48.470;9.226;2022-08-20T09:50:48;96994.31;;;24.67;100.00
3590;BME280;1809;48.470;9.226;2022-08-20T09:53:15;96986.09;;;24.59;100.00
3590;BME280;1809;48.470;9.226;2022-08-20T09:55:45;96993.22;;;24.71;100.00
3590;BME280;1809;48.470;9.226;2022-08-20T09:58:23;96992.22;;;24.09;100.00
3590;BME280;1809;48.470;9.226;2022-08-20T10:00:50;96992.47;;;23.97;100.00
3590;BME280;1809;48.470;9.226;2022-08-20T10:03:16;96997.94;;;23.97;100.00
3590;BME280;1809;48.470;9.226;2022-08-20T10:05:41;96993.75;;;24.10;100.00
3590;BME280;1809;48.470;9.226;2022-08-20T10:08:09;96995.50;;;24.66;100.00
3590;BME280;1809;48.470;9.226;2022-08-20T10:10:35;96992.66;;;24.99;100.00
3590;BME280;1809;48.470;9.226;2022-08-20T10:13:00;96993.44;;;24.96;100.00
3590;BME280;1809;48.470;9.226;2022-08-20T10:15:27;96990.06;;;24.73;100.00
3590;BME280;1809;48.470;9.226;2022-08-20T10:17:52;96991.00;;;24.84;100.00
3590;BME280;1809;48.470;9.226;2022-08-20T10:20:18;96987.84;;;24.82;100.00
3590;BME280;1809;48.470;9.226;2022-08-20T10:22:44;96999.69;;;24.96;100.00
3590;BME280;1809;48.470;9.226;2022-08-20T10:25:10;96999.59;;;24.86;100.00
3590;BME280;1809;48.470;9.226;2022-08-20T10:27:37;97014.38;;;24.00;100.00
3590;BME280;1809;48.470;9.226;2022-08-20T10:30:05;97005.69;;;23.35;100.00
3590;BME280;1809;48.470;9.226;2022-08-20T10:32:31;97013.00;;;22.75;100.00
3590;BME280;1809;48.470;9.226;2022-08-20T10:34:56;97009.78;;;22.05;100.00
3590;BME280;1809;48.470;9.226;2022-08-20T10:37:23;97010.03;;;21.42;100.00
3590;BME280;1809;48.470;9.226;2022-08-20T10:39:50;97001.53;;;21.09;100.00
3590;BME280;1809;48.470;9.226;2022-08-20T10:42:16;96991.84;;;20.61;100.00
3590;BME280;1809;48.470;9.226;2022-08-20T10:44:41;96991.22;;;20.36;100.00
3590;BME280;1809;48.470;9.226;2022-08-20T10:47:14;96987.13;;;19.99;100.00
3590;BME280;1809;48.470;9.226;2022-08-20T10:49:39;96993.31;;;19.84;100.00
3590;BME280;1809;48.470;9.226;2022-08-20T10:52:05;96995.69;;;19.85;100.00
3590;BME280;1809;48.470;9.226;2022-08-20T10:54:30;96992.53;;;19.99;100.00
3590;BME280;1809;48.470;9.226;2022-08-20T10:57:00;96992.25;;;20.16;100.00
3590;BME280;1809;48.470;9.226;2022-08-20T10:59:26;96977.91;;;20.31;100.00
3590;BME280;1809;48.470;9.226;2022-08-20T11:01:51;96985.09;;;20.39;100.00
3590;BME280;1809;48.470;9.226;2022-08-20T11:04:16;96988.06;;;20.50;100.00
3590;BME280;1809;48.470;9.226;2022-08-20T11:06:42;96996.41;;;20.57;100.00
3590;BME280;1809;48.470;9.226;2022-08-20T11:09:07;97006.59;;;20.60;100.00
3590;BME280;1809;48.470;9.226;2022-08-20T11:11:32;96996.84;;;20.75;100.00
3590;BME280;1809;48.470;9.226;2022-08-20T11:13:58;96998.91;;;20.97;100.00
3590;BME280;1809;48.470;9.226;2022-08-20T11:16:23;97014.56;;;21.35;100.00
3590;BME280;1809;48.470;9.226;2022-08-20T11:18:48;97010.44;;;21.79;100.00
3590;BME280;1809;48.470;9.226;2022-08-20T11:21:14;97016.78;;;22.25;100.00
3590;BME280;1809;48.470;9.226;2022-08-20T11:23:39;97024.38;;;22.35;100.00
3590;BME280;1809;48.470;9.226;2022-08-20T11:26:04;97028.09;;;22.27;100.00
3590;BME280;1809;48.470;9.226;2022-08-20T11:28:30;97030.22;;;21.95;100.00
3590;BME280;1809;48.470;9.226;2022-08-20T11:30:57;97021.66;;;21.59;100.00
3590;BME280;1809;48.470;9.226;2022-08-20T11:33:23;97024.81;;;21.80;100.00
3590;BME280;1809;48.470;9.226;2022-08-20T11:35:48;97021.09;;;21.50;100.00
3590;BME280;1809;48.470;9.226;2022-08-20T11:38:13;97026.94;;;21.52;100.00
3590;BME280;1809;48.470;9.226;2022-08-20T11:40:39;97035.81;;;21.49;100.00
3590;BME280;1809;48.470;9.226;2022-08-20T11:43:04;97032.59;;;21.43;100.00
3590;BME280;1809;48.470;9.226;2022-08-20T11:45:29;97033.41;;;21.43;100.00
3590;BME280;1809;48.470;9.226;2022-08-20T11:47:55;97045.09;;;21.44;100.00
3590;BME280;1809;48.470;9.226;2022-08-20T11:50:20;97039.31;;;21.30;100.00
3590;BME280;1809;48.470;9.226;2022-08-20T11:52:46;97037.50;;;21.18;100.00
3590;BME280;1809;48.470;9.226;2022-08-20T11:55:13;97037.78;;;21.13;100.00
3590;BME280;1809;48.470;9.226;2022-08-20T11:57:41;97038.38;;;21.22;100.00
3590;BME280;1809;48.470;9.226;2022-08-20T12:00:11;97035.16;;;21.36;100.00
3590;BME280;1809;48.470;9.226;2022-08-20T12:02:38;97041.41;;;21.36;100.00
3590;BME280;1809;48.470;9.226;2022-08-20T12:05:04;97032.69;;;21.47;100.00
3590;BME280;1809;48.470;9.226;2022-08-20T12:07:29;97037.41;;;21.50;100.00
3590;BME280;1809;48.470;9.226;2022-08-20T12:09:54;97040.38;;;21.60;100.00
3590;BME280;1809;48.470;9.226;2022-08-20T12:12:21;97041.06;;;21.38;100.00
3590;BME280;1809;48.470;9.226;2022-08-20T12:14:52;97039.88;;;21.20;100.00
3590;BME280;1809;48.470;9.226;2022-08-20T12:17:23;97038.91;;;21.12;100.00
3590;BME280;1809;48.470;9.226;2022-08-20T12:19:51;97044.44;;;21.16;100.00
3590;BME280;1809;48.470;9.226;2022-08-20T12:22:17;97043.66;;;21.15;100.00
3590;BME280;1809;48.470;9.226;2022-08-20T12:24:42;97039.50;;;21.21;100.00
3590;BME280;1809;48.470;9.226;2022-08-20T12:27:19;97035.38;;;21.27;100.00
3590;BME280;1809;48.470;9.226;2022-08-20T12:29:47;97038.25;;;21.34;100.00
3590;BME280;1809;48.470;9.226;2022-08-20T12:32:13;97034.53;;;21.23;100.00
3590;BME280;1809;48.470;9.226;2022-08-20T12:34:40;97034.22;;;21.28;100.00
3590;BME280;1809;48.470;9.226;2022-08-20T12:37:12;97024.09;;;21.10;100.00
3590;BME280;1809;48.470;9.226;2022-08-20T12:39:40;97023.31;;;21.09;100.00
3590;BME280;1809;48.470;9.226;2022-08-20T12:42:07;97030.34;;;21.10;100.00
3590;BME280;1809;48.470;9.226;2022-08-20T12:44:33;97019.78;;;21.09;100.00
3590;BME280;1809;48.470;9.226;2022-08-20T12:47:06;97016.63;;;21.22;100.00
3590;BME280;1809;48.470;9.226;2022-08-20T12:49:32;97012.19;;;21.33;100.00
3590;BME280;1809;48.470;9.226;2022-08-20T12:51:57;97021.97;;;21.54;100.00
3590;BME280;1809;48.470;9.226;2022-08-20T12:54:23;97021.09;;;21.88;100.00
3590;BME280;1809;48.470;9.226;2022-08-20T12:56:48;97023.13;;;22.10;100.00
3590;BME280;1809;48.470;9.226;2022-08-20T12:59:16;97024.38;;;22.35;100.00
3590;BME280;1809;48.470;9.226;2022-08-20T13:01:42;97015.09;;;22.40;100.00
3590;BME280;1809;48.470;9.226;2022-08-20T13:04:07;97020.13;;;22.61;100.00
3590;BME280;1809;48.470;9.226;2022-08-20T13:06:32;97021.28;;;22.82;100.00
3590;BME280;1809;48.470;9.226;2022-08-20T13:08:58;97018.41;;;22.98;100.00
3590;BME280;1809;48.470;9.226;2022-08-20T13:11:23;97025.34;;;23.18;100.00
3590;BME280;1809;48.470;9.226;2022-08-20T13:13:48;97021.63;;;23.56;100.00
3590;BME280;1809;48.470;9.226;2022-08-20T13:16:14;97023.28;;;23.64;100.00